Terminal Aerodrome Forecast
Issued by NWS

Home | Current Version | Previous Version | Text Only | Print | Product List | Glossary On
Versions: 1 2 3 4 5 6 7 8 9 10 11 12 13 14 15 16 17 18 19 20 21 22 23 24 25 26 27 28 29 30 31
000
FTUS44 KTSA 191800 AAA
TAFFYV
TAF AMD
KFYV 191803Z 1918/2018 00000KT P6SM SCT025 BKN040
     FM200100 00000KT P6SM SCT250
     FM200600 00000KT 4SM BR SCT250
      TEMPO 2009/2013 2SM BR
     FM201500 20007KT P6SM BKN050=

USA.gov is the U.S. government's official web portal to all federal, state and local government web resources and services.